Time;durP1;ratioP1;P1;durP2;ratioP2;P2;SDS_P1;SDS_P2;PMS_P1;PMS_P2;Temp;Humidity;BMP_temperature;BMP_pressure;BME280_temperature;BME280_humidity;BME280_pressure;Samples;Min_cycle;Max_cycle;Signal;HPM_P1;HPM_P2
2022/07/05 00:01:28;;;;;;;3.10;1.20;;;;;;;-141.50;100.00;63355.56;5029103;28;20144;-81
2022/07/05 00:03:55;;;;;;;4.18;1.20;;;;;;;-141.50;100.00;63355.56;5029666;28;20199;-82
2022/07/05 00:06:21;;;;;;;1.90;1.13;;;;;;;-141.50;100.00;63355.56;5012263;28;20126;-82
2022/07/05 00:08:48;;;;;;;1.85;1.10;;;;;;;-141.50;100.00;63355.56;5002538;28;20077;-82
2022/07/05 00:11:15;;;;;;;2.90;1.33;;;;;;;-141.50;100.00;63355.56;5012112;28;20417;-82
2022/07/05 00:13:41;;;;;;;2.90;1.23;;;;;;;-141.50;100.00;63355.56;5012706;28;20064;-83
2022/07/05 00:16:08;;;;;;;6.35;1.35;;;;;;;-141.50;100.00;63355.56;5012824;28;20216;-83
2022/07/05 00:18:34;;;;;;;3.80;1.30;;;;;;;-141.50;100.00;63355.56;5012146;28;20081;-82
2022/07/05 00:21:01;;;;;;;6.10;1.33;;;;;;;-141.50;100.00;63355.56;5011353;28;20141;-82
2022/07/05 00:23:27;;;;;;;3.03;1.45;;;;;;;-141.50;100.00;63355.56;5011767;28;20085;-81
2022/07/05 00:25:54;;;;;;;2.70;1.40;;;;;;;-141.50;100.00;63355.56;5030102;28;20077;-82
2022/07/05 00:28:21;;;;;;;4.93;0.93;;;;;;;-141.50;100.00;63355.56;5029351;28;20115;-82
2022/07/05 00:30:47;;;;;;;3.05;1.10;;;;;;;-141.50;100.00;63355.56;5012145;28;20088;-81
2022/07/05 00:33:14;;;;;;;1.92;1.27;;;;;;;-141.50;100.00;63355.56;5029493;28;20103;-80
2022/07/05 00:35:40;;;;;;;4.88;1.38;;;;;;;-141.50;100.00;63355.56;5032201;28;20046;-82
2022/07/05 00:38:07;;;;;;;7.05;1.33;;;;;;;-141.50;100.00;63355.56;5034121;28;20073;-82
2022/07/05 00:40:34;;;;;;;2.92;1.20;;;;;;;-141.50;100.00;63355.56;5034662;28;20118;-82
2022/07/05 00:43:00;;;;;;;4.50;1.40;;;;;;;-141.50;100.00;63355.56;5034640;28;20112;-81
2022/07/05 00:45:27;;;;;;;4.60;1.50;;;;;;;-141.50;100.00;63355.56;5034748;28;20111;-81
2022/07/05 00:47:53;;;;;;;6.90;1.30;;;;;;;-141.50;100.00;63355.56;5034342;28;20127;-81
2022/07/05 00:50:20;;;;;;;4.97;1.48;;;;;;;-141.50;100.00;63355.56;5033933;28;20053;-83
2022/07/05 00:52:47;;;;;;;4.05;1.20;;;;;;;-141.50;100.00;63355.56;5013103;28;20092;-81
2022/07/05 00:55:15;;;;;;;3.15;1.33;;;;;;;-141.50;100.00;63355.56;5025186;28;20213;-82
2022/07/05 00:57:42;;;;;;;6.45;1.42;;;;;;;-141.50;100.00;63355.56;5014685;28;20141;-82
2022/07/05 01:00:09;;;;;;;7.47;1.50;;;;;;;-141.50;100.00;63355.56;5017859;28;20081;-81
2022/07/05 01:02:35;;;;;;;1.63;1.40;;;;;;;-141.50;100.00;63355.56;5036028;28;20045;-82
2022/07/05 01:05:03;;;;;;;7.28;1.40;;;;;;;-141.50;100.00;63355.56;5034457;28;20049;-83
2022/07/05 01:07:30;;;;;;;6.13;1.40;;;;;;;-141.50;100.00;63355.56;5034528;28;20089;-83
2022/07/05 01:09:56;;;;;;;3.17;1.60;;;;;;;-141.50;100.00;63355.56;5032705;28;20090;-81
2022/07/05 01:12:23;;;;;;;4.30;1.45;;;;;;;-141.50;100.00;63355.56;5015415;28;20053;-80
2022/07/05 01:14:50;;;;;;;4.22;1.65;;;;;;;-141.50;100.00;63355.56;5032200;28;20085;-83
2022/07/05 01:17:17;;;;;;;3.53;1.42;;;;;;;-141.50;100.00;63355.56;5015892;28;20153;-82
2022/07/05 01:19:44;;;;;;;2.88;1.40;;;;;;;-141.50;100.00;63355.56;5032027;28;20049;-82
2022/07/05 01:22:24;;;;;;;5.85;1.70;;;;;;;-141.50;100.00;63355.56;5015151;28;20085;-82
2022/07/05 01:24:51;;;;;;;4.72;1.60;;;;;;;-141.50;100.00;63355.56;5014921;28;20509;-82
2022/07/05 01:27:22;;;;;;;6.18;1.50;;;;;;;-141.50;100.00;63355.56;5033193;28;20494;-82
2022/07/05 01:29:49;;;;;;;3.25;1.30;;;;;;;-141.50;100.00;63355.56;5014586;28;20124;-81
2022/07/05 01:32:15;;;;;;;3.17;1.50;;;;;;;-141.50;100.00;63355.56;5036654;28;20072;-82
2022/07/05 01:34:45;;;;;;;4.60;1.50;;;;;;;-141.50;100.00;63355.56;5042790;28;20049;-83
2022/07/05 01:37:12;;;;;;;2.97;1.50;;;;;;;-141.50;100.00;63355.56;5024034;28;20107;-81
2022/07/05 01:39:39;;;;;;;4.72;1.67;;;;;;;-141.50;100.00;63355.56;5042748;28;20045;-81
2022/07/05 01:42:06;;;;;;;3.00;1.60;;;;;;;-141.50;100.00;63355.56;5037023;28;20435;-82
2022/07/05 01:44:33;;;;;;;3.63;1.40;;;;;;;-141.50;100.00;63355.56;5018279;28;20068;-82
2022/07/05 01:47:04;;;;;;;2.65;1.65;;;;;;;-141.50;100.00;63355.56;5035134;28;20136;-83
2022/07/05 01:49:36;;;;;;;2.78;1.88;;;;;;;-141.50;100.00;63355.56;5017294;28;20064;-83
2022/07/05 01:52:09;;;;;;;3.05;1.52;;;;;;;-141.50;100.00;63355.56;5017178;28;20050;-82
2022/07/05 01:54:36;;;;;;;3.13;1.67;;;;;;;-141.50;100.00;63355.56;5035043;28;20136;-82
2022/07/05 01:57:07;;;;;;;2.97;1.73;;;;;;;-141.50;100.00;63355.56;5016260;28;20045;-81
2022/07/05 01:59:35;;;;;;;3.45;1.70;;;;;;;-141.50;100.00;63355.56;5030880;28;20112;-79
2022/07/05 02:02:05;;;;;;;2.72;1.60;;;;;;;-141.50;100.00;63355.56;5013539;28;20485;-81
2022/07/05 02:04:34;;;;;;;3.72;1.63;;;;;;;-141.50;100.00;63355.56;5013722;28;20077;-80
2022/07/05 02:07:08;;;;;;;3.30;1.85;;;;;;;-141.50;100.00;63355.56;5013668;28;20470;-81
2022/07/05 02:09:35;;;;;;;4.82;1.65;;;;;;;-141.50;100.00;63355.56;5031448;28;20160;-81
2022/07/05 02:12:04;;;;;;;4.30;2.00;;;;;;;-141.50;100.00;63355.56;5014378;28;20136;-81
2022/07/05 02:14:31;;;;;;;5.30;2.15;;;;;;;-141.50;100.00;63355.56;5013967;28;20497;-81
2022/07/05 02:16:58;;;;;;;3.33;1.80;;;;;;;-141.50;100.00;63355.56;5031932;28;20132;-81
2022/07/05 02:19:24;;;;;;;2.20;1.80;;;;;;;-141.50;100.00;63355.56;5016115;28;20414;-82
2022/07/05 02:21:51;;;;;;;5.72;2.08;;;;;;;-141.50;100.00;63355.56;5013169;28;20104;-82
2022/07/05 02:24:19;;;;;;;4.03;2.08;;;;;;;-141.50;100.00;63355.56;5021905;28;20079;-83
2022/07/05 02:26:47;;;;;;;2.70;1.85;;;;;;;-141.50;100.00;63355.56;5030379;28;20045;-81
2022/07/05 02:29:14;;;;;;;5.45;2.00;;;;;;;-141.50;100.00;63355.56;5030152;28;20140;-82
2022/07/05 02:31:40;;;;;;;3.80;1.75;;;;;;;-141.50;100.00;63355.56;5030069;28;20083;-81
2022/07/05 02:34:07;;;;;;;3.25;1.98;;;;;;;-141.50;100.00;63355.56;5030476;28;20053;-81
2022/07/05 02:36:33;;;;;;;2.88;2.10;;;;;;;-141.50;100.00;63355.56;5029581;28;20128;-82
2022/07/05 02:39:00;;;;;;;7.93;2.10;;;;;;;-141.50;100.00;63355.56;5029969;28;20049;-82
2022/07/05 02:41:26;;;;;;;3.35;1.98;;;;;;;-141.50;100.00;63355.56;5030571;28;20561;-82
2022/07/05 02:43:53;;;;;;;5.70;2.17;;;;;;;-141.50;100.00;63355.56;5032929;28;20079;-83
2022/07/05 02:46:20;;;;;;;8.20;2.50;;;;;;;-141.50;100.00;63355.56;5024429;28;20108;-80
2022/07/05 02:48:46;;;;;;;4.38;1.65;;;;;;;-141.50;100.00;63355.56;5006968;28;20086;-82
2022/07/05 02:51:16;;;;;;;4.70;2.25;;;;;;;-141.50;100.00;63355.56;5031094;28;20049;-83
2022/07/05 02:53:43;;;;;;;4.95;1.98;;;;;;;-141.50;100.00;63355.56;5031110;28;20060;-83
2022/07/05 02:56:09;;;;;;;5.03;2.25;;;;;;;-141.50;100.00;63355.56;5031733;28;20111;-82
2022/07/05 02:58:38;;;;;;;4.07;2.35;;;;;;;-141.50;100.00;63355.56;5013870;28;20136;-83
2022/07/05 03:01:04;;;;;;;2.78;2.15;;;;;;;-141.50;100.00;63355.56;5014885;28;20057;-83
2022/07/05 03:03:31;;;;;;;3.78;2.25;;;;;;;-141.50;100.00;63355.56;5014951;28;20202;-82
2022/07/05 03:05:58;;;;;;;4.93;2.40;;;;;;;-141.50;100.00;63355.56;5014680;28;20045;-81
2022/07/05 03:08:24;;;;;;;5.93;2.40;;;;;;;-141.50;100.00;63355.56;5014342;28;20046;-82
2022/07/05 03:10:51;;;;;;;2.97;2.17;;;;;;;-141.50;100.00;63355.56;5032422;28;20053;-83
2022/07/05 03:13:17;;;;;;;3.88;2.33;;;;;;;-141.50;100.00;63355.56;5032700;28;20057;-82
2022/07/05 03:15:44;;;;;;;4.70;2.42;;;;;;;-141.50;100.00;63355.56;5013498;28;20110;-83
2022/07/05 03:18:11;;;;;;;5.68;2.30;;;;;;;-141.50;100.00;63355.56;5031367;28;20049;-82
2022/07/05 03:20:37;;;;;;;4.53;2.63;;;;;;;-141.50;100.00;63355.56;5031446;28;20050;-82
2022/07/05 03:23:04;;;;;;;6.72;2.30;;;;;;;-141.50;100.00;63355.56;5031832;28;20131;-82
2022/07/05 03:25:31;;;;;;;3.42;2.28;;;;;;;-141.50;100.00;63355.56;5031889;28;20510;-83
2022/07/05 03:27:58;;;;;;;5.72;2.25;;;;;;;-141.50;100.00;63355.56;5014373;28;20053;-84
2022/07/05 03:30:24;;;;;;;6.15;2.60;;;;;;;-141.50;100.00;63355.56;5032327;28;20123;-82
2022/07/05 03:32:51;;;;;;;2.92;2.03;;;;;;;-141.50;100.00;63355.56;5037663;28;20433;-83
2022/07/05 03:35:18;;;;;;;5.47;2.80;;;;;;;-141.50;100.00;63355.56;5015124;28;20273;-81
2022/07/05 03:37:44;;;;;;;3.78;2.42;;;;;;;-141.50;100.00;63355.56;5035108;28;20502;-83
2022/07/05 03:40:11;;;;;;;3.97;2.55;;;;;;;-141.50;100.00;63355.56;5037659;28;20114;-82
2022/07/05 03:42:37;;;;;;;5.85;2.30;;;;;;;-141.50;100.00;63355.56;5030814;28;20380;-82
2022/07/05 03:45:04;;;;;;;5.60;2.35;;;;;;;-141.50;100.00;63355.56;5013647;28;20276;-82
2022/07/05 03:47:31;;;;;;;7.43;2.60;;;;;;;-141.50;100.00;63355.56;5012968;28;20116;-82
2022/07/05 03:49:58;;;;;;;4.10;2.28;;;;;;;-141.50;100.00;63355.56;5023743;28;20054;-82
2022/07/05 03:52:24;;;;;;;9.88;2.70;;;;;;;-141.50;100.00;63355.56;5001847;28;20049;-82
2022/07/05 03:54:52;;;;;;;6.45;2.72;;;;;;;-141.50;100.00;63355.56;5001583;28;20053;-84
2022/07/05 03:57:20;;;;;;;4.90;2.70;;;;;;;-141.50;100.00;63355.56;5000285;28;20077;-85
2022/07/05 03:59:46;;;;;;;8.38;2.40;;;;;;;-141.50;100.00;63355.56;5016042;28;20065;-84
2022/07/05 04:02:13;;;;;;;5.30;2.55;;;;;;;-141.50;100.00;63355.56;5018473;28;20054;-84
2022/07/05 04:04:40;;;;;;;4.63;2.75;;;;;;;-141.50;100.00;63355.56;5017026;28;20077;-84
2022/07/05 04:07:06;;;;;;;7.32;2.85;;;;;;;-141.50;100.00;63355.56;5016807;28;20507;-82
2022/07/05 04:09:33;;;;;;;6.25;2.45;;;;;;;-141.50;100.00;63355.56;5001497;28;20057;-81
2022/07/05 04:12:00;;;;;;;5.75;2.50;;;;;;;-141.50;100.00;63355.56;5003441;28;20053;-83
2022/07/05 04:14:27;;;;;;;6.03;2.28;;;;;;;-141.50;100.00;63355.56;5017481;28;20069;-83
2022/07/05 04:16:53;;;;;;;5.13;2.35;;;;;;;-141.50;100.00;63355.56;5004798;28;20482;-83
2022/07/05 04:19:20;;;;;;;6.72;2.45;;;;;;;-141.50;100.00;63355.56;5002946;28;20058;-83
2022/07/05 04:21:47;;;;;;;6.10;2.60;;;;;;;-141.50;100.00;63355.56;5017380;28;20054;-83
2022/07/05 04:24:13;;;;;;;7.47;2.55;;;;;;;-141.50;100.00;63355.56;4995198;28;20050;-81
2022/07/05 04:26:40;;;;;;;7.93;2.65;;;;;;;-141.50;100.00;63355.56;5033761;28;20120;-81
2022/07/05 04:29:07;;;;;;;7.47;2.63;;;;;;;-141.50;100.00;63355.56;5035227;28;20596;-81
2022/07/05 04:31:34;;;;;;;5.22;2.75;;;;;;;-141.50;100.00;63355.56;5034432;28;20509;-82
2022/07/05 04:34:01;;;;;;;6.07;2.50;;;;;;;-141.50;100.00;63355.56;5020603;28;20596;-81
2022/07/05 04:36:28;;;;;;;4.28;2.40;;;;;;;-141.50;100.00;63355.56;5018506;28;20131;-82
2022/07/05 04:38:54;;;;;;;5.47;2.85;;;;;;;-141.50;100.00;63355.56;5037474;28;20049;-81
2022/07/05 04:41:22;;;;;;;5.35;2.78;;;;;;;-141.50;100.00;63355.56;5038539;28;20053;-81
2022/07/05 04:43:48;;;;;;;5.80;2.92;;;;;;;-141.50;100.00;63355.56;5016954;28;20053;-83
2022/07/05 04:46:15;;;;;;;8.35;2.53;;;;;;;-141.50;100.00;63355.56;5011828;28;20145;-82
2022/07/05 04:48:42;;;;;;;6.88;2.55;;;;;;;-141.50;100.00;63355.56;5021177;28;20058;-83
2022/07/05 04:51:09;;;;;;;7.20;2.97;;;;;;;-141.50;100.00;63355.56;5023298;28;20049;-83
2022/07/05 04:53:38;;;;;;;7.20;2.80;;;;;;;-141.50;100.00;63355.56;5013473;28;20053;-84
2022/07/05 04:56:07;;;;;;;4.82;2.42;;;;;;;-141.50;100.00;63355.56;5039202;28;20074;-86
2022/07/05 04:58:34;;;;;;;6.90;2.55;;;;;;;-141.50;100.00;63355.56;5031372;28;20483;-84
2022/07/05 05:01:00;;;;;;;9.35;2.50;;;;;;;-141.50;100.00;63355.56;5030118;28;20057;-84
2022/07/05 05:03:27;;;;;;;5.00;2.15;;;;;;;-141.50;100.00;63355.56;5033820;28;20068;-84
2022/07/05 05:05:54;;;;;;;10.20;2.33;;;;;;;-141.50;100.00;63355.56;5024816;28;20054;-83
2022/07/05 05:08:20;;;;;;;12.60;2.10;;;;;;;-141.50;100.00;63355.56;5023354;28;20076;-83
2022/07/05 05:10:47;;;;;;;7.75;1.83;;;;;;;-141.50;100.00;63355.56;5005110;28;20073;-84
2022/07/05 05:13:13;;;;;;;8.55;1.52;;;;;;;-141.50;100.00;63355.56;5007679;28;20136;-84
2022/07/05 05:15:40;;;;;;;6.13;1.70;;;;;;;-141.50;100.00;63355.56;5005387;28;20560;-82
2022/07/05 05:18:07;;;;;;;7.72;1.40;;;;;;;-141.50;100.00;63355.56;5022308;28;20053;-82
2022/07/05 05:20:33;;;;;;;6.10;1.35;;;;;;;-141.50;100.00;63355.56;5022213;28;20484;-84
2022/07/05 05:23:05;;;;;;;6.65;1.23;;;;;;;-141.50;100.00;63355.56;5029242;28;20058;-84
2022/07/05 05:25:32;;;;;;;6.00;1.27;;;;;;;-141.50;100.00;63355.56;5007612;28;20189;-83
2022/07/05 05:28:01;;;;;;;7.78;1.35;;;;;;;-141.50;100.00;63355.56;5021061;28;20095;-84
2022/07/05 05:30:35;;;;;;;4.28;1.27;;;;;;;-141.50;100.00;63355.56;5020532;28;20056;-84
2022/07/05 05:33:02;;;;;;;2.80;1.27;;;;;;;-141.50;100.00;63355.56;5021849;28;20468;-83
2022/07/05 05:35:28;;;;;;;6.70;1.27;;;;;;;-141.50;100.00;63355.56;5024575;28;20558;-86
2022/07/05 05:37:55;;;;;;;3.45;1.20;;;;;;;-141.50;100.00;63355.56;5030905;28;20080;-84
2022/07/05 05:40:24;;;;;;;6.90;1.50;;;;;;;-141.50;100.00;63355.56;5034818;28;20045;-84
2022/07/05 05:42:53;;;;;;;5.88;1.25;;;;;;;-141.50;100.00;63355.56;5026042;28;20054;-87
2022/07/05 05:45:20;;;;;;;4.65;1.30;;;;;;;-141.50;100.00;63355.56;5013540;28;20056;-85
2022/07/05 05:47:49;;;;;;;3.92;1.00;;;;;;;-141.50;100.00;63355.56;5029830;28;20073;-86
2022/07/05 05:50:27;;;;;;;6.88;1.20;;;;;;;-141.50;100.00;63355.56;5006668;28;20053;-84
2022/07/05 05:52:54;;;;;;;4.32;1.15;;;;;;;-141.50;100.00;63355.56;5023735;28;20057;-88
2022/07/05 05:55:22;;;;;;;4.25;1.17;;;;;;;-141.50;100.00;63355.56;5004657;28;20049;-86
2022/07/05 05:57:49;;;;;;;4.95;1.08;;;;;;;-141.50;100.00;63355.56;5024537;28;20055;-85
2022/07/05 06:00:17;;;;;;;2.40;0.93;;;;;;;-141.50;100.00;63355.56;5007646;28;20324;-82
2022/07/05 06:02:45;;;;;;;5.95;1.00;;;;;;;-141.50;100.00;63355.56;5018514;28;20419;-85
2022/07/05 06:05:12;;;;;;;1.63;0.70;;;;;;;-141.50;100.00;63355.56;5018883;28;20049;-86
2022/07/05 06:07:46;;;;;;;5.40;1.10;;;;;;;-141.50;100.00;63355.56;5032904;28;20153;-85
2022/07/05 06:10:18;;;;;;;6.85;1.08;;;;;;;-141.50;100.00;63355.56;5013544;28;20045;-84
2022/07/05 06:12:45;;;;;;;10.77;1.20;;;;;;;-141.50;100.00;63355.56;5014444;28;20483;-85
2022/07/05 06:15:11;;;;;;;9.18;1.40;;;;;;;-141.50;100.00;63355.56;5031926;28;20049;-85
2022/07/05 06:17:38;;;;;;;4.20;1.00;;;;;;;-141.50;100.00;63355.56;5031540;28;20061;-82
2022/07/05 06:20:12;;;;;;;8.27;1.50;;;;;;;-141.50;100.00;63355.56;5031749;28;20470;-84
2022/07/05 06:22:39;;;;;;;6.45;1.10;;;;;;;-141.50;100.00;63355.56;5030367;28;20057;-84
2022/07/05 06:25:07;;;;;;;8.90;1.40;;;;;;;-141.50;100.00;63355.56;5013060;28;20124;-83
2022/07/05 06:27:55;;;;;;;7.70;1.20;;;;;;;-141.50;100.00;63355.56;5015863;28;20065;-86
2022/07/05 06:30:23;;;;;;;3.80;1.10;;;;;;;-141.50;100.00;63355.56;5030799;28;20046;-82
2022/07/05 06:32:50;;;;;;;5.45;1.08;;;;;;;-141.50;100.00;63355.56;5033578;28;20050;-83
2022/07/05 06:35:17;;;;;;;3.50;1.10;;;;;;;-141.50;100.00;63355.56;5022836;28;20076;-84
2022/07/05 06:37:45;;;;;;;4.20;1.00;;;;;;;-141.50;100.00;63355.56;5013916;28;20100;-85
2022/07/05 06:40:16;;;;;;;3.65;1.10;;;;;;;-141.50;100.00;63355.56;5029373;28;20060;-85
2022/07/05 06:42:43;;;;;;;4.70;0.98;;;;;;;-141.50;100.00;63355.56;5014592;28;20061;-84
2022/07/05 06:45:10;;;;;;;2.53;1.10;;;;;;;-141.50;100.00;63355.56;5030476;28;20054;-84
2022/07/05 06:47:37;;;;;;;4.35;1.17;;;;;;;-141.50;100.00;63355.56;5007158;28;20038;-85
2022/07/05 06:50:05;;;;;;;9.68;1.30;;;;;;;-141.50;100.00;63355.56;4995469;28;20054;-85
2022/07/05 06:52:32;;;;;;;5.20;0.90;;;;;;;-141.50;100.00;63355.56;4995367;28;20426;-85
2022/07/05 06:55:00;;;;;;;4.07;0.93;;;;;;;-141.50;100.00;63355.56;5012109;28;20049;-82
2022/07/05 06:57:27;;;;;;;3.38;0.80;;;;;;;-141.50;100.00;63355.56;5013001;28;20569;-83
2022/07/05 06:59:56;;;;;;;7.03;0.93;;;;;;;-141.50;100.00;63355.56;5008491;28;20049;-85
2022/07/05 07:02:43;;;;;;;5.90;1.00;;;;;;;-141.50;100.00;63355.56;5003139;28;20049;-84
2022/07/05 07:05:10;;;;;;;4.00;1.00;;;;;;;-141.50;100.00;63355.56;5024712;28;20061;-84
2022/07/05 07:10:24;;;;;;;3.87;1.00;;;;;;;-141.50;100.00;63355.56;5014072;28;20195;-84
2022/07/05 07:12:59;;;;;;;3.45;1.00;;;;;;;-141.50;100.00;63355.56;5013968;28;20819;-84
2022/07/05 07:15:26;;;;;;;7.50;1.20;;;;;;;-141.50;100.00;63355.56;5010023;28;20443;-82
2022/07/05 07:17:53;;;;;;;6.72;1.15;;;;;;;-141.50;100.00;63355.56;4991924;28;20057;-84
2022/07/05 07:20:20;;;;;;;2.78;1.10;;;;;;;-141.50;100.00;63355.56;4992479;28;20074;-84
2022/07/05 07:22:46;;;;;;;5.97;1.10;;;;;;;-141.50;100.00;63355.56;5012300;28;20128;-86
2022/07/05 07:25:13;;;;;;;4.20;1.08;;;;;;;-141.50;100.00;63355.56;4993534;28;20145;-84
2022/07/05 07:27:44;;;;;;;4.82;1.02;;;;;;;-141.50;100.00;63355.56;5011073;28;20052;-80
2022/07/05 07:30:13;;;;;;;7.72;1.10;;;;;;;-141.50;100.00;63355.56;5011852;28;20109;-83
2022/07/05 07:32:40;;;;;;;7.38;1.00;;;;;;;-141.50;100.00;63355.56;5009465;28;20046;-84
2022/07/05 07:35:07;;;;;;;8.57;1.10;;;;;;;-141.50;100.00;63355.56;4994087;28;20110;-82
2022/07/05 07:37:34;;;;;;;11.32;1.30;;;;;;;-141.50;100.00;63355.56;5022446;28;20046;-81
2022/07/05 07:40:05;;;;;;;4.13;1.05;;;;;;;-141.50;100.00;63355.56;4998486;28;20050;-82
2022/07/05 07:42:32;;;;;;;6.47;1.10;;;;;;;-141.50;100.00;63355.56;5011046;28;20073;-82
2022/07/05 07:45:03;;;;;;;9.18;1.20;;;;;;;-141.50;100.00;63355.56;5003393;28;20077;-82
2022/07/05 07:47:34;;;;;;;4.22;1.02;;;;;;;-141.50;100.00;63355.56;5017097;28;20565;-83
2022/07/05 07:50:02;;;;;;;7.70;1.00;;;;;;;-141.50;100.00;63355.56;4998938;28;20410;-83
2022/07/05 07:52:30;;;;;;;6.07;0.82;;;;;;;-141.50;100.00;63355.56;5017793;28;20085;-82
2022/07/05 07:54:57;;;;;;;3.25;0.80;;;;;;;-141.50;100.00;63355.56;5016771;28;20057;-84
2022/07/05 07:57:23;;;;;;;8.30;1.00;;;;;;;-141.50;100.00;63355.56;5010827;28;20128;-82
2022/07/05 07:59:50;;;;;;;3.78;0.90;;;;;;;-141.50;100.00;63355.56;5037472;28;20092;-83
2022/07/05 08:02:20;;;;;;;6.68;1.15;;;;;;;-141.50;100.00;63355.56;5037041;28;20528;-84
2022/07/05 08:04:48;;;;;;;4.25;0.80;;;;;;;-141.50;100.00;63355.56;5037634;28;20123;-84
2022/07/05 08:07:17;;;;;;;3.38;0.82;;;;;;;-141.50;100.00;63355.56;5037450;28;20101;-82
2022/07/05 08:09:44;;;;;;;2.00;0.82;;;;;;;-141.50;100.00;63355.56;5022073;28;20049;-84
2022/07/05 08:12:11;;;;;;;0.95;0.70;;;;;;;-141.50;100.00;63355.56;5037655;28;20081;-82
2022/07/05 08:14:37;;;;;;;3.28;0.80;;;;;;;-141.50;100.00;63355.56;5037375;28;20092;-81
2022/07/05 08:17:07;;;;;;;3.63;0.80;;;;;;;-141.50;100.00;63355.56;5037194;28;20045;-84
2022/07/05 08:22:21;;;;;;;7.15;0.85;;;;;;;-141.50;100.00;63355.56;5050760;28;20109;-82
2022/07/05 08:24:48;;;;;;;3.78;0.90;;;;;;;-141.50;100.00;63355.56;5030949;28;20049;-83
2022/07/05 08:27:15;;;;;;;4.15;0.95;;;;;;;-141.50;100.00;63355.56;5028053;28;20083;-85
2022/07/05 08:29:43;;;;;;;2.40;0.80;;;;;;;-141.50;100.00;63355.56;5046856;28;20049;-83
2022/07/05 08:32:10;;;;;;;2.88;1.08;;;;;;;-141.50;100.00;63355.56;5026555;28;20065;-83
2022/07/05 08:34:36;;;;;;;2.90;0.90;;;;;;;-141.50;100.00;63355.56;5043115;28;20084;-80
2022/07/05 08:37:03;;;;;;;3.70;0.95;;;;;;;-141.50;100.00;63355.56;5022719;28;20041;-82
2022/07/05 08:39:34;;;;;;;2.08;0.80;;;;;;;-141.50;100.00;63355.56;5036769;28;20064;-80
2022/07/05 08:42:01;;;;;;;1.58;0.80;;;;;;;-141.50;100.00;63355.56;5036036;28;20084;-82
2022/07/05 08:44:29;;;;;;;6.35;0.80;;;;;;;-141.50;100.00;63355.56;5036482;28;20103;-84
2022/07/05 08:46:57;;;;;;;4.75;0.68;;;;;;;-141.50;100.00;63355.56;5016355;28;20103;-82
2022/07/05 08:49:25;;;;;;;3.40;0.85;;;;;;;-141.50;100.00;63355.56;5016083;28;20084;-81
2022/07/05 08:51:53;;;;;;;2.63;0.70;;;;;;;-141.50;100.00;63355.56;5014900;28;20149;-81
2022/07/05 08:54:21;;;;;;;1.30;0.55;;;;;;;-141.50;100.00;63355.56;5018688;28;20053;-81
2022/07/05 08:56:48;;;;;;;1.90;0.70;;;;;;;-141.50;100.00;63355.56;5002428;28;20046;-81
2022/07/05 08:59:35;;;;;;;2.17;0.80;;;;;;;-141.50;100.00;63355.56;4999913;28;20708;-83
2022/07/05 09:02:02;;;;;;;2.97;0.90;;;;;;;-141.50;100.00;63355.56;5015026;28;20073;-83
2022/07/05 09:04:33;;;;;;;4.25;0.75;;;;;;;-141.50;100.00;63355.56;4997251;28;20068;-82
2022/07/05 09:07:07;;;;;;;2.22;0.73;;;;;;;-141.50;100.00;63355.56;5011783;28;20060;-81
2022/07/05 09:09:38;;;;;;;1.70;0.80;;;;;;;-141.50;100.00;63355.56;4994536;28;20065;-82
2022/07/05 09:12:06;;;;;;;4.75;0.88;;;;;;;-141.50;100.00;63355.56;5012038;28;20569;-82
2022/07/05 09:14:53;;;;;;;2.38;0.90;;;;;;;-141.50;100.00;63355.56;5012320;28;20108;-81
2022/07/05 09:17:19;;;;;;;5.32;0.73;;;;;;;-141.50;100.00;63355.56;4995123;28;20049;-84
2022/07/05 09:20:08;;;;;;;1.90;0.70;;;;;;;-141.50;100.00;63355.56;5012762;28;20152;-83
2022/07/05 09:22:54;;;;;;;2.78;0.65;;;;;;;-141.50;100.00;63355.56;5013468;28;20558;-84
2022/07/05 09:25:23;;;;;;;;;;;;;;;-141.50;100.00;63355.56;5011743;28;20057;-83
2022/07/05 09:27:52;;;;;;;2.92;0.80;;;;;;;-141.50;100.00;63355.56;5011657;28;20413;-84
2022/07/05 09:30:36;;;;;;;4.18;0.70;;;;;;;-141.50;100.00;63355.56;4994259;28;20104;-83
2022/07/05 09:33:09;;;;;;;2.25;0.73;;;;;;;-141.50;100.00;63355.56;5012221;28;20109;-82
2022/07/05 09:35:41;;;;;;;7.15;1.08;;;;;;;-141.50;100.00;63355.56;5011361;28;20506;-84
2022/07/05 09:38:18;;;;;;;1.48;0.70;;;;;;;-141.50;100.00;63355.56;4994806;28;20045;-82
2022/07/05 09:40:55;;;;;;;3.10;0.73;;;;;;;-141.50;100.00;63355.56;5011967;28;20049;-82
2022/07/05 09:43:26;;;;;;;3.97;0.77;;;;;;;-141.50;100.00;63355.56;4995025;28;20100;-82
2022/07/05 09:45:56;;;;;;;2.13;0.70;;;;;;;-141.50;100.00;63355.56;5014340;28;20090;-85
2022/07/05 09:48:24;;;;;;;1.15;0.60;;;;;;;-141.50;100.00;63355.56;5039096;28;20048;-84
2022/07/05 09:51:05;;;;;;;5.75;0.70;;;;;;;-141.50;100.00;63355.56;5016837;28;20081;-84
2022/07/05 09:53:54;;;;;;;3.97;0.93;;;;;;;-141.50;100.00;63355.56;5035512;28;20081;-83
2022/07/05 09:56:29;;;;;;;18.98;1.10;;;;;;;-141.50;100.00;63355.56;5034809;28;20469;-84
2022/07/05 09:59:12;;;;;;;8.52;1.02;;;;;;;-141.50;100.00;63355.56;5014144;28;20053;-80
2022/07/05 10:01:39;;;;;;;2.92;0.85;;;;;;;-141.50;100.00;63355.56;5030353;28;20089;-83
2022/07/05 10:04:08;;;;;;;1.92;0.88;;;;;;;-141.50;100.00;63355.56;5031229;28;20049;-82
2022/07/05 10:06:34;;;;;;;3.92;0.93;;;;;;;-141.50;100.00;63355.56;5012827;28;20399;-82
2022/07/05 10:09:04;;;;;;;4.82;0.90;;;;;;;-141.50;100.00;63355.56;5013910;28;20695;-82
2022/07/05 10:11:30;;;;;;;2.17;0.95;;;;;;;-141.50;100.00;63355.56;5013691;28;20579;-82
2022/07/05 10:13:59;;;;;;;3.53;0.80;;;;;;;-141.50;100.00;63355.56;5013313;28;20103;-80
2022/07/05 10:16:25;;;;;;;4.20;1.10;;;;;;;-141.50;100.00;63355.56;5031119;28;20085;-81
2022/07/05 10:18:55;;;;;;;2.53;0.90;;;;;;;-141.50;100.00;63355.56;5013378;28;20061;-80
2022/07/05 10:21:24;;;;;;;2.38;0.90;;;;;;;-141.50;100.00;63355.56;5013169;28;20045;-83
2022/07/05 10:23:53;;;;;;;2.85;0.90;;;;;;;-141.50;100.00;63355.56;5030918;28;20103;-80
2022/07/05 10:26:21;;;;;;;3.55;0.95;;;;;;;-141.50;100.00;63355.56;5032171;28;20553;-84
2022/07/05 10:28:50;;;;;;;3.20;0.95;;;;;;;-141.50;100.00;63355.56;5031353;28;20521;-83
2022/07/05 10:31:27;;;;;;;5.72;0.82;;;;;;;-141.50;100.00;63355.56;5014868;28;20124;-81
2022/07/05 10:33:56;;;;;;;2.65;1.00;;;;;;;-141.50;100.00;63355.56;5033302;28;20083;-82
2022/07/05 10:36:23;;;;;;;5.60;1.13;;;;;;;-141.50;100.00;63355.56;5039920;28;20077;-81
2022/07/05 10:38:50;;;;;;;4.78;0.90;;;;;;;-141.50;100.00;63355.56;5038864;28;20049;-84
2022/07/05 10:41:24;;;;;;;2.03;0.90;;;;;;;-141.50;100.00;63355.56;5045157;28;20087;-81
2022/07/05 10:43:55;;;;;;;2.40;0.98;;;;;;;-141.50;100.00;63355.56;5026139;28;20064;-82
2022/07/05 10:46:38;;;;;;;5.78;1.15;;;;;;;-141.50;100.00;63355.56;5033343;28;20054;-83
2022/07/05 10:49:15;;;;;;;3.95;0.80;;;;;;;-141.50;100.00;63355.56;5039596;28;20049;-79
2022/07/05 10:51:42;;;;;;;4.22;0.90;;;;;;;-141.50;100.00;63355.56;5034970;28;20136;-83
2022/07/05 10:54:09;;;;;;;4.75;0.90;;;;;;;-141.50;100.00;63355.56;5031849;28;20049;-81
2022/07/05 10:56:38;;;;;;;8.25;0.90;;;;;;;-141.50;100.00;63355.56;5013462;28;20191;-82
2022/07/05 10:59:11;;;;;;;6.28;0.80;;;;;;;-141.50;100.00;63355.56;5030035;28;20191;-78
2022/07/05 11:01:40;;;;;;;6.05;1.10;;;;;;;-141.50;100.00;63355.56;5029890;28;20050;-80
2022/07/05 11:04:15;;;;;;;1.88;0.80;;;;;;;-141.50;100.00;63355.56;5012348;28;20049;-80
2022/07/05 11:06:45;;;;;;;1.73;0.73;;;;;;;-141.50;100.00;63355.56;5030066;28;20050;-83
2022/07/05 11:09:11;;;;;;;5.55;0.70;;;;;;;-141.50;100.00;63355.56;5013786;28;20127;-81
2022/07/05 11:11:47;;;;;;;2.85;1.10;;;;;;;-141.50;100.00;63355.56;5033635;28;20168;-79
2022/07/05 11:14:37;;;;;;;3.92;1.02;;;;;;;-141.50;100.00;63355.56;5038216;28;20132;-83
2022/07/05 11:17:35;;;;;;;3.80;1.08;;;;;;;-141.50;100.00;63355.56;5015446;28;20050;-84
2022/07/05 11:20:26;;;;;;;5.13;1.25;;;;;;;-141.50;100.00;63355.56;5014672;28;20144;-82
2022/07/05 11:23:10;;;;;;;4.97;0.95;;;;;;;-141.50;100.00;63355.56;5029633;28;20053;-82